createdAt,value
2022-12-22T00:01:54.863Z,21.02
2022-12-22T00:04:41.163Z,30.70
2022-12-22T00:07:26.767Z,21.48
2022-12-22T00:10:12.139Z,21.42
2022-12-22T00:15:42.547Z,16.20
2022-12-22T00:18:33.849Z,16.15
2022-12-22T00:21:19.442Z,14.10
2022-12-22T00:24:04.686Z,15.60
2022-12-22T00:26:50.915Z,13.45
2022-12-22T00:29:36.152Z,14.05
2022-12-22T00:32:22.725Z,16.50
2022-12-22T00:35:08.316Z,15.43
2022-12-22T00:37:55.919Z,16.52
2022-12-22T00:40:45.474Z,13.38
2022-12-22T00:43:31.776Z,15.30
2022-12-22T00:46:19.585Z,14.52
2022-12-22T00:49:05.496Z,15.82
2022-12-22T00:51:51.680Z,15.23
2022-12-22T00:54:39.038Z,14.05
2022-12-22T00:57:23.969Z,13.25
2022-12-22T01:00:10.620Z,15.45
2022-12-22T01:02:56.011Z,16.58
2022-12-22T01:05:41.553Z,18.15
2022-12-22T01:13:58.944Z,14.70
2022-12-22T01:16:44.204Z,15.15
2022-12-22T01:19:29.585Z,16.50
2022-12-22T01:25:00.645Z,15.50
2022-12-22T01:27:45.743Z,14.23
2022-12-22T01:30:31.517Z,13.40
2022-12-22T01:33:16.971Z,15.68
2022-12-22T01:36:02.159Z,17.73
2022-12-22T01:38:47.239Z,17.23
2022-12-22T01:41:36.713Z,18.38
2022-12-22T01:44:32.190Z,20.10
2022-12-22T01:47:46.716Z,24.17
2022-12-22T01:50:34.371Z,17.50
2022-12-22T01:53:23.351Z,21.20
2022-12-22T01:56:08.609Z,25.02
2022-12-22T02:01:42.249Z,23.10
2022-12-22T02:04:28.072Z,25.85
2022-12-22T02:07:22.734Z,21.95
2022-12-22T02:10:25.635Z,23.48
2022-12-22T02:13:29.751Z,25.33
2022-12-22T02:16:23.624Z,22.88
2022-12-22T02:19:53.197Z,28.02
2022-12-22T02:23:05.478Z,25.90
2022-12-22T02:26:06.230Z,28.65
2022-12-22T02:28:52.912Z,24.27
2022-12-22T02:31:38.293Z,26.33
2022-12-22T02:34:34.336Z,28.33
2022-12-22T02:37:32.095Z,27.73
2022-12-22T02:40:21.678Z,28.17
2022-12-22T02:43:32.567Z,28.02
2022-12-22T02:46:32.436Z,29.73
2022-12-22T02:49:24.798Z,28.67
2022-12-22T02:52:19.606Z,28.55
2022-12-22T02:55:04.856Z,27.87
2022-12-22T02:57:50.206Z,28.48
2022-12-22T03:00:35.691Z,30.65
2022-12-22T03:03:21.481Z,27.17
2022-12-22T03:06:07.103Z,32.55
2022-12-22T03:08:52.144Z,31.67
2022-12-22T03:11:37.365Z,39.67
2022-12-22T03:14:23.027Z,27.58
2022-12-22T03:17:08.216Z,33.05
2022-12-22T03:19:53.316Z,35.75
2022-12-22T03:22:38.455Z,33.70
2022-12-22T03:25:24.406Z,36.78
2022-12-22T03:27:50.967Z,31.85
2022-12-22T03:30:18.081Z,54.75
2022-12-22T03:32:44.853Z,52.38
2022-12-22T03:35:11.443Z,101.63
2022-12-22T03:37:38.218Z,74.72
2022-12-22T03:40:05.354Z,61.65
2022-12-22T03:42:50.768Z,44.78
2022-12-22T03:45:43.478Z,45.65
2022-12-22T03:48:10.148Z,34.10
2022-12-22T03:50:36.889Z,37.60
2022-12-22T03:53:04.887Z,29.45
2022-12-22T03:55:31.861Z,29.00
2022-12-22T03:57:58.447Z,28.95
2022-12-22T04:00:25.147Z,32.25
2022-12-22T04:02:51.995Z,40.08
2022-12-22T04:05:18.769Z,25.40
2022-12-22T04:07:45.372Z,26.67
2022-12-22T04:10:30.856Z,26.08
2022-12-22T04:12:57.555Z,35.08
2022-12-22T04:15:32.425Z,30.45
2022-12-22T04:17:59.532Z,27.02
2022-12-22T04:20:27.517Z,24.42
2022-12-22T04:22:55.569Z,30.00
2022-12-22T04:25:23.381Z,28.42
2022-12-22T04:27:50.044Z,30.02
2022-12-22T04:30:17.850Z,24.10
2022-12-22T04:32:44.507Z,29.23
2022-12-22T04:35:12.028Z,34.05
2022-12-22T04:37:38.649Z,29.90
2022-12-22T04:40:05.980Z,25.10
2022-12-22T04:42:32.736Z,26.15
2022-12-22T04:44:59.374Z,25.45
2022-12-22T04:47:25.980Z,27.35
2022-12-22T04:49:55.363Z,33.50
2022-12-22T04:52:22.400Z,28.05
2022-12-22T04:54:49.049Z,35.10
2022-12-22T04:57:16.211Z,28.45
2022-12-22T04:59:42.902Z,24.95
2022-12-22T05:02:09.602Z,20.77
2022-12-22T05:04:36.308Z,23.58
2022-12-22T05:07:02.978Z,21.35
2022-12-22T05:09:29.682Z,22.80
2022-12-22T05:11:56.569Z,23.40
2022-12-22T05:14:23.148Z,29.88
2022-12-22T05:16:49.824Z,23.45
2022-12-22T05:19:16.866Z,21.67
2022-12-22T05:21:43.508Z,23.55
2022-12-22T05:24:10.131Z,19.92
2022-12-22T05:26:36.784Z,20.63
2022-12-22T05:29:03.555Z,22.73
2022-12-22T05:31:30.275Z,20.65
2022-12-22T05:33:57.039Z,21.17
2022-12-22T05:36:23.758Z,25.52
2022-12-22T05:38:50.351Z,22.92
2022-12-22T05:41:16.969Z,26.65
2022-12-22T05:43:43.608Z,19.80
2022-12-22T05:46:11.554Z,23.65
2022-12-22T05:48:39.984Z,19.77
2022-12-22T05:51:10.359Z,20.65
2022-12-22T05:53:38.031Z,20.63
2022-12-22T05:56:05.537Z,19.92
2022-12-22T05:58:32.860Z,19.80
2022-12-22T06:01:00.888Z,26.38
2022-12-22T06:03:28.820Z,18.75
2022-12-22T06:05:56.444Z,19.48
2022-12-22T06:08:24.069Z,31.67
2022-12-22T06:10:51.402Z,20.92
2022-12-22T06:13:18.011Z,21.35
2022-12-22T06:15:44.673Z,24.67
2022-12-22T06:18:11.500Z,23.35
2022-12-22T06:20:38.073Z,19.63
2022-12-22T06:23:04.720Z,22.23
2022-12-22T06:25:31.527Z,22.20
2022-12-22T06:27:58.150Z,19.55
2022-12-22T06:30:32.582Z,36.03
2022-12-22T06:33:01.078Z,16.60
2022-12-22T06:35:28.061Z,17.10
2022-12-22T06:37:54.736Z,25.02
2022-12-22T06:40:21.467Z,20.58
2022-12-22T06:43:08.993Z,27.85
2022-12-22T06:45:38.199Z,24.45
2022-12-22T06:48:05.137Z,57.08
2022-12-22T06:50:32.102Z,39.70
2022-12-22T06:52:58.829Z,38.22
2022-12-22T06:55:25.754Z,44.67
2022-12-22T06:57:52.394Z,33.92
2022-12-22T07:00:19.633Z,37.47
2022-12-22T07:02:46.445Z,35.47
2022-12-22T07:05:15.395Z,25.40
2022-12-22T07:07:42.015Z,33.20
2022-12-22T07:10:09.160Z,39.20
2022-12-22T07:12:35.754Z,26.52
2022-12-22T07:15:02.701Z,32.15
2022-12-22T07:17:29.327Z,53.13
2022-12-22T07:19:55.947Z,24.65
2022-12-22T07:22:29.361Z,34.40
2022-12-22T07:24:56.774Z,23.88
2022-12-22T07:27:23.415Z,25.88
2022-12-22T07:29:50.023Z,26.08
2022-12-22T07:32:16.624Z,21.52
2022-12-22T07:34:43.277Z,28.65
2022-12-22T07:37:11.819Z,22.77
2022-12-22T07:39:38.419Z,20.48
2022-12-22T07:42:23.624Z,24.17
2022-12-22T07:44:50.219Z,22.98
2022-12-22T07:47:16.846Z,34.42
2022-12-22T07:50:02.240Z,28.13
2022-12-22T07:54:55.506Z,29.90
2022-12-22T07:57:22.104Z,31.17
2022-12-22T07:59:48.807Z,23.45
2022-12-22T08:02:15.564Z,23.05
2022-12-22T08:04:42.237Z,29.95
2022-12-22T08:07:08.902Z,29.27
2022-12-22T08:09:35.490Z,27.50
2022-12-22T08:12:02.096Z,26.08
2022-12-22T08:14:28.775Z,33.00
2022-12-22T08:16:55.495Z,37.67
2022-12-22T08:19:22.140Z,26.42
2022-12-22T08:21:52.990Z,28.40
2022-12-22T08:24:20.521Z,41.70
2022-12-22T08:26:51.277Z,51.35
2022-12-22T08:29:28.986Z,46.00
2022-12-22T08:31:55.858Z,38.00
2022-12-22T08:34:22.730Z,38.80
2022-12-22T08:36:53.241Z,37.40
2022-12-22T08:39:22.408Z,72.43
2022-12-22T08:41:49.743Z,32.08
2022-12-22T08:44:24.616Z,86.53
2022-12-22T08:46:52.629Z,43.72
2022-12-22T08:49:19.804Z,42.67
2022-12-22T08:51:47.586Z,40.33
2022-12-22T08:54:15.154Z,40.17
2022-12-22T08:56:42.377Z,61.65
2022-12-22T08:59:09.711Z,23.80
2022-12-22T09:01:38.909Z,27.17
2022-12-22T09:04:09.017Z,31.42
2022-12-22T09:06:40.882Z,33.42
2022-12-22T09:09:10.500Z,34.13
2022-12-22T09:11:37.635Z,47.63
2022-12-22T09:14:05.087Z,33.88
2022-12-22T09:16:33.625Z,66.40
2022-12-22T09:19:01.786Z,51.78
2022-12-22T09:21:28.927Z,44.58
2022-12-22T09:23:56.572Z,28.33
2022-12-22T09:26:25.626Z,39.67
2022-12-22T09:28:52.651Z,29.60
2022-12-22T09:31:21.464Z,36.63
2022-12-22T09:33:48.972Z,41.25
2022-12-22T09:36:19.821Z,110.68
2022-12-22T09:38:46.679Z,160.27
2022-12-22T09:41:36.617Z,122.82
2022-12-22T09:44:16.203Z,129.80
2022-12-22T09:46:43.327Z,154.07
2022-12-22T09:49:17.738Z,126.25
2022-12-22T09:51:49.054Z,121.75
2022-12-22T09:54:16.094Z,68.90
2022-12-22T09:56:43.002Z,275.00
2022-12-22T09:59:12.475Z,484.23
2022-12-22T10:02:01.447Z,438.70
2022-12-22T10:04:38.527Z,80.82
2022-12-22T10:07:22.356Z,34.17
2022-12-22T10:09:51.196Z,16.45
2022-12-22T10:12:25.312Z,21.67
2022-12-22T10:14:54.006Z,36.47
2022-12-22T10:17:32.006Z,84.13
2022-12-22T10:20:27.456Z,370.08
2022-12-22T10:28:24.601Z,560.22
2022-12-22T10:31:11.836Z,605.63
2022-12-22T10:33:45.914Z,630.58
2022-12-22T10:36:16.090Z,629.25
2022-12-22T10:39:02.064Z,651.42
2022-12-22T10:41:41.723Z,616.67
2022-12-22T10:44:17.395Z,570.17
2022-12-22T10:46:48.020Z,663.22
2022-12-22T10:52:29.527Z,613.80
2022-12-22T10:55:23.248Z,682.20
2022-12-22T10:57:50.373Z,647.53
2022-12-22T11:00:28.964Z,623.78
2022-12-22T11:02:58.165Z,625.20
2022-12-22T11:05:25.416Z,658.15
2022-12-22T11:07:52.415Z,541.63
2022-12-22T11:10:36.659Z,599.92
2022-12-22T11:13:17.325Z,634.92
2022-12-22T11:15:49.546Z,535.80
2022-12-22T11:18:31.197Z,649.58
2022-12-22T11:21:01.385Z,666.08
2022-12-22T11:23:44.889Z,762.97
2022-12-22T11:26:36.608Z,696.90
2022-12-22T11:29:34.004Z,687.10
2022-12-22T11:32:24.347Z,587.75
2022-12-22T11:35:20.599Z,686.53
2022-12-22T11:38:25.138Z,566.17
2022-12-22T11:41:24.166Z,762.20
2022-12-22T11:43:53.525Z,866.70
2022-12-22T11:46:38.168Z,811.53
2022-12-22T11:49:10.915Z,826.15
2022-12-22T11:51:46.799Z,729.70
2022-12-22T11:54:38.207Z,554.38
2022-12-22T11:57:26.286Z,698.22
2022-12-22T12:00:08.187Z,786.42
2022-12-22T12:02:59.606Z,658.15
2022-12-22T12:05:40.944Z,799.42
2022-12-22T12:08:39.806Z,745.33
2022-12-22T12:11:31.515Z,742.30
2022-12-22T12:14:13.184Z,672.72
2022-12-22T12:17:02.647Z,514.55
2022-12-22T12:19:42.922Z,595.22
2022-12-22T12:22:26.177Z,460.05
2022-12-22T12:25:27.429Z,121.95
2022-12-22T12:28:07.799Z,89.72
2022-12-22T12:30:45.059Z,113.20
2022-12-22T12:33:20.807Z,109.22
2022-12-22T12:36:07.707Z,125.80
2022-12-22T12:39:12.972Z,133.40
2022-12-22T12:41:58.467Z,157.15
2022-12-22T12:44:28.407Z,183.10
2022-12-22T12:46:56.526Z,150.77
2022-12-22T12:49:35.734Z,160.00
2022-12-22T12:52:07.119Z,157.63
2022-12-22T12:54:47.413Z,177.68
2022-12-22T12:57:26.520Z,188.52
2022-12-22T12:59:58.225Z,146.73
2022-12-22T13:02:28.422Z,134.40
2022-12-22T13:05:36.190Z,182.93
2022-12-22T13:08:29.784Z,139.02
2022-12-22T13:10:56.703Z,137.65
2022-12-22T13:13:26.342Z,132.98
2022-12-22T13:16:02.014Z,122.13
2022-12-22T13:18:34.747Z,122.32
2022-12-22T13:24:25.748Z,120.35
2022-12-22T13:26:55.491Z,128.63
2022-12-22T13:29:22.237Z,144.70
2022-12-22T13:31:54.502Z,118.70
2022-12-22T13:34:33.184Z,114.63
2022-12-22T13:37:16.366Z,93.07
2022-12-22T13:39:43.008Z,102.40
2022-12-22T13:42:12.710Z,96.60
2022-12-22T13:44:40.842Z,84.53
2022-12-22T13:47:13.695Z,72.97
2022-12-22T13:50:07.720Z,81.15
2022-12-22T13:52:29.753Z,74.15
2022-12-22T13:54:56.430Z,77.35
2022-12-22T13:57:24.407Z,71.25
2022-12-22T13:59:51.919Z,62.42
2022-12-22T14:02:20.708Z,68.95
2022-12-22T14:05:23.015Z,66.05
2022-12-22T14:08:05.619Z,66.22
2022-12-22T14:10:36.148Z,67.05
2022-12-22T14:13:07.206Z,57.75
2022-12-22T14:15:34.430Z,67.90
2022-12-22T14:18:01.188Z,55.50
2022-12-22T14:20:37.921Z,55.42
2022-12-22T14:23:18.628Z,62.42
2022-12-22T14:25:46.344Z,65.43
2022-12-22T14:28:30.138Z,68.38
2022-12-22T14:30:59.160Z,63.83
2022-12-22T14:33:29.767Z,70.20
2022-12-22T14:36:21.698Z,70.97
2022-12-22T14:38:51.783Z,69.28
2022-12-22T14:41:46.001Z,68.72
2022-12-22T14:44:34.494Z,81.80
2022-12-22T14:47:06.323Z,80.82
2022-12-22T14:49:34.151Z,90.20
2022-12-22T14:52:07.887Z,79.68
2022-12-22T14:54:35.060Z,82.55
2022-12-22T14:57:15.219Z,94.32
2022-12-22T15:00:02.156Z,90.18
2022-12-22T15:02:39.723Z,91.75
2022-12-22T15:05:08.072Z,81.22
2022-12-22T15:08:07.154Z,92.03
2022-12-22T15:10:39.415Z,90.18
2022-12-22T15:13:12.210Z,84.60
2022-12-22T15:15:39.010Z,89.85
2022-12-22T15:18:05.762Z,94.13
2022-12-22T15:20:39.031Z,95.28
2022-12-22T15:23:12.967Z,81.55
2022-12-22T15:25:39.649Z,96.70
2022-12-22T15:28:06.508Z,92.85
2022-12-22T15:30:33.203Z,87.78
2022-12-22T15:32:59.881Z,85.15
2022-12-22T15:35:32.101Z,89.45
2022-12-22T15:37:59.722Z,85.95
2022-12-22T15:40:27.820Z,77.47
2022-12-22T15:42:54.583Z,86.78
2022-12-22T15:45:22.338Z,94.47
2022-12-22T15:47:51.801Z,89.43
2022-12-22T15:50:32.160Z,87.63
2022-12-22T15:53:04.855Z,83.05
2022-12-22T15:55:32.095Z,83.38
2022-12-22T15:57:59.707Z,79.35
2022-12-22T16:00:26.331Z,74.85
2022-12-22T16:02:53.076Z,78.20
2022-12-22T16:05:19.890Z,82.95
2022-12-22T16:07:46.556Z,85.32
2022-12-22T16:10:28.760Z,82.97
2022-12-22T16:13:00.481Z,78.72
2022-12-22T16:15:30.581Z,70.38
2022-12-22T16:17:58.222Z,75.72
2022-12-22T16:20:26.492Z,69.28
2022-12-22T16:22:53.736Z,57.42
2022-12-22T16:25:24.748Z,67.35
2022-12-22T16:27:51.563Z,57.25
2022-12-22T16:30:24.009Z,59.03
2022-12-22T16:32:51.039Z,59.63
2022-12-22T16:35:20.684Z,61.97
2022-12-22T16:37:51.135Z,54.63
2022-12-22T16:40:19.103Z,49.05
2022-12-22T16:45:54.393Z,40.70
2022-12-22T16:48:35.260Z,38.90
2022-12-22T16:51:02.045Z,44.63
2022-12-22T16:53:28.988Z,50.63
2022-12-22T16:55:57.051Z,57.45
2022-12-22T16:58:23.693Z,59.50
2022-12-22T17:00:50.408Z,51.22
2022-12-22T17:03:25.135Z,41.95
2022-12-22T17:05:54.568Z,38.78
2022-12-22T17:08:33.950Z,40.50
2022-12-22T17:11:10.184Z,60.80
2022-12-22T17:13:38.752Z,53.20
2022-12-22T17:16:05.749Z,52.28
2022-12-22T17:18:33.245Z,45.65
2022-12-22T17:21:00.684Z,70.20
2022-12-22T17:23:39.235Z,57.05
2022-12-22T17:26:15.326Z,46.33
2022-12-22T17:28:42.999Z,39.80
2022-12-22T17:31:15.677Z,54.40
2022-12-22T17:33:42.368Z,51.35
2022-12-22T17:36:28.945Z,37.28
2022-12-22T17:38:55.783Z,34.47
2022-12-22T17:41:22.417Z,27.67
2022-12-22T17:43:48.999Z,40.92
2022-12-22T17:46:17.875Z,32.28
2022-12-22T17:48:45.235Z,31.08
2022-12-22T17:51:24.841Z,34.85
2022-12-22T17:53:52.299Z,38.95
2022-12-22T17:56:22.123Z,40.17
2022-12-22T17:58:48.983Z,45.42
2022-12-22T18:01:18.737Z,42.55
2022-12-22T18:03:45.407Z,46.92
2022-12-22T18:06:17.641Z,43.60
2022-12-22T18:08:45.416Z,61.60
2022-12-22T18:11:12.587Z,62.72
2022-12-22T18:13:39.583Z,55.95
2022-12-22T18:16:10.777Z,59.72
2022-12-22T18:18:37.569Z,69.20
2022-12-22T18:21:06.028Z,51.92
2022-12-22T18:23:36.322Z,44.47
2022-12-22T18:26:05.581Z,41.70
2022-12-22T18:28:32.493Z,44.47
2022-12-22T18:30:59.257Z,52.65
2022-12-22T18:33:26.026Z,56.25
2022-12-22T18:35:52.739Z,59.50
2022-12-22T18:38:30.352Z,57.03
2022-12-22T18:40:57.080Z,51.13
2022-12-22T18:43:24.087Z,70.82
2022-12-22T18:45:50.757Z,72.53
2022-12-22T18:48:17.351Z,53.40
2022-12-22T18:50:44.192Z,43.88
2022-12-22T18:53:26.359Z,49.63
2022-12-22T18:55:53.267Z,57.00
2022-12-22T18:58:20.090Z,64.93
2022-12-22T19:00:47.392Z,57.35
2022-12-22T19:03:19.212Z,63.53
2022-12-22T19:05:47.581Z,56.13
2022-12-22T19:08:19.438Z,64.28
2022-12-22T19:10:52.386Z,49.97
2022-12-22T19:13:44.097Z,59.25
2022-12-22T19:16:17.014Z,57.83
2022-12-22T19:18:44.278Z,57.80
2022-12-22T19:21:15.684Z,62.40
2022-12-22T19:23:43.653Z,63.30
2022-12-22T19:26:18.354Z,70.63
2022-12-22T19:28:45.526Z,61.50
2022-12-22T19:31:33.253Z,56.63
2022-12-22T19:34:03.654Z,80.28
2022-12-22T19:36:31.850Z,66.88
2022-12-22T19:39:04.541Z,54.17
2022-12-22T19:41:49.874Z,47.75
2022-12-22T19:44:35.957Z,45.17
2022-12-22T19:47:02.705Z,39.88
2022-12-22T19:49:29.662Z,39.35
2022-12-22T19:51:57.388Z,42.33
2022-12-22T19:54:24.450Z,40.10
2022-12-22T19:56:54.518Z,37.28
2022-12-22T19:59:44.707Z,36.40
2022-12-22T20:02:21.103Z,38.40
2022-12-22T20:04:48.952Z,39.95
2022-12-22T20:07:21.362Z,47.70
2022-12-22T20:09:48.658Z,43.95
2022-12-22T20:12:22.363Z,43.63
2022-12-22T20:14:49.317Z,36.65
2022-12-22T20:17:15.917Z,41.15
2022-12-22T20:19:42.572Z,43.90
2022-12-22T20:22:15.874Z,38.20
2022-12-22T20:24:43.139Z,44.35
2022-12-22T20:27:18.758Z,40.90
2022-12-22T20:29:45.369Z,47.83
2022-12-22T20:32:15.612Z,49.92
2022-12-22T20:34:42.352Z,48.97
2022-12-22T20:37:17.011Z,59.38
2022-12-22T20:39:43.738Z,59.38
2022-12-22T20:42:21.688Z,57.58
2022-12-22T20:45:03.813Z,52.53
2022-12-22T20:47:33.212Z,46.95
2022-12-22T20:50:00.157Z,46.45
2022-12-22T20:52:26.821Z,61.70
2022-12-22T20:54:53.422Z,56.88
2022-12-22T20:57:22.680Z,59.40
2022-12-22T20:59:55.783Z,55.40
2022-12-22T21:02:26.828Z,53.05
2022-12-22T21:04:53.815Z,55.40
2022-12-22T21:07:20.432Z,54.00
2022-12-22T21:09:47.117Z,56.78
2022-12-22T21:12:13.864Z,53.10
2022-12-22T21:14:40.529Z,49.90
2022-12-22T21:17:16.416Z,61.45
2022-12-22T21:19:43.271Z,76.65
2022-12-22T21:22:10.024Z,76.28
2022-12-22T21:24:37.051Z,69.57
2022-12-22T21:27:04.840Z,65.45
2022-12-22T21:29:31.698Z,71.63
2022-12-22T21:31:58.347Z,67.88
2022-12-22T21:34:25.016Z,81.93
2022-12-22T21:36:59.212Z,61.45
2022-12-22T21:39:39.090Z,53.80
2022-12-22T21:42:06.346Z,45.65
2022-12-22T21:44:35.199Z,49.47
2022-12-22T21:47:02.742Z,29.42
2022-12-22T21:49:31.762Z,27.73
2022-12-22T21:51:58.443Z,21.88
2022-12-22T21:54:25.920Z,19.27
2022-12-22T21:56:54.098Z,15.63
2022-12-22T21:59:21.076Z,11.93
2022-12-22T22:01:48.011Z,17.60
2022-12-22T22:04:14.856Z,21.67
2022-12-22T22:06:41.468Z,18.65
2022-12-22T22:09:08.271Z,21.13
2022-12-22T22:11:58.121Z,19.90
2022-12-22T22:14:25.749Z,10.40
2022-12-22T22:16:52.712Z,10.00
2022-12-22T22:19:19.351Z,16.35
2022-12-22T22:21:46.600Z,11.27
2022-12-22T22:24:13.791Z,10.25
2022-12-22T22:26:40.468Z,15.90
2022-12-22T22:29:07.268Z,13.93
2022-12-22T22:31:34.082Z,7.18
2022-12-22T22:34:00.722Z,9.38
2022-12-22T22:36:27.414Z,6.03
2022-12-22T22:38:54.264Z,7.93
2022-12-22T22:41:20.879Z,7.75
2022-12-22T22:43:47.491Z,12.13
2022-12-22T22:46:14.423Z,8.93
2022-12-22T22:48:41.107Z,3.92
2022-12-22T22:51:10.629Z,7.38
2022-12-22T22:53:37.297Z,6.45
2022-12-22T22:56:04.474Z,5.93
2022-12-22T22:58:31.288Z,15.13
2022-12-22T23:01:07.774Z,5.95
2022-12-22T23:03:35.453Z,9.63
2022-12-22T23:06:03.510Z,7.53
2022-12-22T23:08:30.693Z,8.52
2022-12-22T23:10:58.163Z,6.45
2022-12-22T23:13:24.851Z,4.93
2022-12-22T23:16:03.292Z,8.57
2022-12-22T23:18:31.375Z,9.98
2022-12-22T23:21:01.932Z,14.85
2022-12-22T23:23:29.763Z,6.82
2022-12-22T23:25:56.535Z,5.55
2022-12-22T23:28:23.852Z,7.63
2022-12-22T23:30:52.499Z,5.95
2022-12-22T23:33:20.153Z,7.70
2022-12-22T23:35:48.929Z,9.68
2022-12-22T23:38:16.359Z,10.18
2022-12-22T23:40:58.540Z,7.90
2022-12-22T23:43:25.234Z,4.63
2022-12-22T23:45:51.841Z,7.28
2022-12-22T23:48:18.447Z,7.63
2022-12-22T23:50:48.693Z,8.23
2022-12-22T23:53:16.987Z,8.35
2022-12-22T23:55:45.008Z,6.63
2022-12-22T23:58:11.933Z,6.95
